Time;durP1;ratioP1;P1;durP2;ratioP2;P2;SDS_P1;SDS_P2;PMS_P1;PMS_P2;Temp;Humidity;BMP_temperature;BMP_pressure;BME280_temperature;BME280_humidity;BME280_pressure;Samples;Min_cycle;Max_cycle;Signal;HPM_P1;HPM_P2
2023/04/13 00:00:10;;;;;;;;;;;5.90;99.90;;;;;;4991384;28;19936;-67
2023/04/13 00:02:37;;;;;;;;;;;5.80;99.90;;;;;;4990564;28;19928;-68
2023/04/13 00:05:04;;;;;;;;;;;5.90;99.90;;;;;;4991027;28;19994;-67
2023/04/13 00:07:32;;;;;;;;;;;5.90;99.90;;;;;;4994205;28;20283;-67
2023/04/13 00:10:01;;;;;;;;;;;5.90;99.90;;;;;;4995133;28;20355;-68
2023/04/13 00:12:26;;;;;;;;;;;5.90;99.90;;;;;;4995637;28;19925;-68
2023/04/13 00:14:52;;;;;;;;;;;5.90;99.90;;;;;;4979058;28;19926;-67
2023/04/13 00:17:18;;;;;;;;;;;5.90;99.90;;;;;;4962575;28;20020;-68
2023/04/13 00:19:46;;;;;;;;;;;5.90;99.90;;;;;;4996164;28;19932;-68
2023/04/13 00:22:12;;;;;;;;;;;5.90;99.90;;;;;;4995091;28;19926;-68
2023/04/13 00:24:38;;;;;;;;;;;6.00;99.90;;;;;;4994489;28;20228;-67
2023/04/13 00:27:04;;;;;;;;;;;6.10;99.90;;;;;;4994826;28;20008;-67
2023/04/13 00:29:29;;;;;;;;;;;6.10;99.90;;;;;;4995677;28;19925;-68
2023/04/13 00:31:55;;;;;;;;;;;6.10;99.90;;;;;;4995026;28;20307;-68
2023/04/13 00:34:21;;;;;;;;;;;6.20;99.90;;;;;;4994261;28;19980;-69
2023/04/13 00:36:47;;;;;;;;;;;6.10;99.90;;;;;;4995912;28;19973;-67
2023/04/13 00:39:14;;;;;;;;;;;6.20;99.90;;;;;;4995760;28;19933;-68
2023/04/13 00:41:40;;;;;;;;;;;6.20;99.90;;;;;;4962435;28;20319;-67
2023/04/13 00:44:07;;;;;;;;;;;6.20;99.90;;;;;;4994148;28;19972;-67
2023/04/13 00:46:33;;;;;;;;;;;6.20;99.90;;;;;;4993806;28;19937;-68
2023/04/13 00:49:00;;;;;;;;;;;6.20;99.90;;;;;;4994652;28;19926;-68
2023/04/13 00:51:29;;;;;;;;;;;6.20;99.90;;;;;;4995278;28;19926;-68
2023/04/13 00:53:56;;;;;;;;;;;6.20;99.90;;;;;;4978091;28;20331;-68
2023/04/13 00:56:26;;;;;;;;;;;6.20;99.90;;;;;;4995435;28;20299;-68
2023/04/13 00:58:52;;;;;;;;;;;6.20;99.90;;;;;;4995554;28;19932;-68
2023/04/13 01:01:18;;;;;;;;;;;6.30;99.90;;;;;;4995461;28;20335;-68
2023/04/13 01:03:43;;;;;;;;;;;6.30;99.90;;;;;;4995092;28;20039;-68
2023/04/13 01:06:23;;;;;;;;;;;6.30;99.90;;;;;;4995657;28;19926;-69
2023/04/13 01:08:54;;;;;;;;;;;6.30;99.90;;;;;;4993959;28;19961;-68
2023/04/13 01:11:31;;;;;;;;;;;6.40;99.90;;;;;;4995238;28;19926;-68
2023/04/13 01:14:05;;;;;;;;;;;6.40;99.90;;;;;;4994303;28;19945;-68
2023/04/13 01:16:33;;;;;;;;;;;6.50;99.90;;;;;;4977683;28;20369;-68
2023/04/13 01:19:00;;;;;;;;;;;6.40;99.90;;;;;;4994389;28;20342;-70
2023/04/13 01:21:27;;;;;;;;;;;6.50;99.90;;;;;;4995121;28;19980;-69
2023/04/13 01:24:02;;;;;;;;;;;6.40;99.90;;;;;;4977642;28;19933;-69
2023/04/13 01:26:35;;;;;;;;;;;6.40;99.90;;;;;;4993125;28;19960;-69
2023/04/13 01:29:01;;;;;;;;;;;6.30;99.90;;;;;;4994807;28;19980;-69
2023/04/13 01:31:28;;;;;;;;;;;6.30;99.90;;;;;;4994742;28;19930;-70
2023/04/13 01:33:54;;;;;;;;;;;6.20;99.90;;;;;;4993367;28;19948;-69
2023/04/13 01:36:20;;;;;;;;;;;6.10;99.90;;;;;;4977557;28;20347;-70
2023/04/13 01:38:46;;;;;;;;;;;6.10;99.90;;;;;;4993323;28;19926;-69
2023/04/13 01:41:11;;;;;;;;;;;6.10;99.90;;;;;;4977390;28;20330;-68
2023/04/13 01:43:37;;;;;;;;;;;6.10;99.90;;;;;;4994182;28;19930;-69
2023/04/13 01:46:10;;;;;;;;;;;6.10;99.90;;;;;;4977244;28;19926;-71
2023/04/13 01:48:44;;;;;;;;;;;6.10;99.90;;;;;;4993343;28;20314;-69
2023/04/13 01:51:15;;;;;;;;;;;6.00;99.90;;;;;;4993587;28;20405;-69
2023/04/13 01:53:52;;;;;;;;;;;6.00;99.90;;;;;;4994380;28;19969;-69
2023/04/13 01:56:18;;;;;;;;;;;6.00;99.90;;;;;;4993680;28;19930;-70
2023/04/13 01:58:50;;;;;;;;;;;6.00;99.90;;;;;;4976793;28;19926;-69
2023/04/13 02:01:16;;;;;;;;;;;5.90;99.90;;;;;;4977435;28;19925;-69
2023/04/13 02:03:42;;;;;;;;;;;6.00;99.90;;;;;;4992924;28;19932;-68
2023/04/13 02:06:09;;;;;;;;;;;5.90;99.90;;;;;;4994307;28;19953;-68
2023/04/13 02:08:35;;;;;;;;;;;5.90;99.90;;;;;;4994153;28;20263;-69
2023/04/13 02:11:02;;;;;;;;;;;5.90;99.90;;;;;;4994288;28;19932;-69
2023/04/13 02:13:29;;;;;;;;;;;5.90;99.90;;;;;;4994141;28;19929;-69
2023/04/13 02:15:54;;;;;;;;;;;5.90;99.90;;;;;;4976427;28;19929;-69
2023/04/13 02:18:22;;;;;;;;;;;5.90;99.90;;;;;;4976943;28;19926;-70
2023/04/13 02:20:57;;;;;;;;;;;5.80;99.90;;;;;;4992498;28;20374;-70
2023/04/13 02:23:22;;;;;;;;;;;5.90;99.90;;;;;;4992780;28;19973;-69
2023/04/13 02:25:49;;;;;;;;;;;5.80;99.90;;;;;;4992356;28;19977;-69
2023/04/13 02:28:16;;;;;;;;;;;5.80;99.90;;;;;;4992749;28;19925;-69
2023/04/13 02:30:42;;;;;;;;;;;5.80;99.90;;;;;;4959445;28;20012;-69
2023/04/13 02:33:08;;;;;;;;;;;5.80;99.90;;;;;;4976477;28;20017;-69
2023/04/13 02:35:37;;;;;;;;;;;5.80;99.90;;;;;;4992600;28;19926;-70
2023/04/13 02:38:06;;;;;;;;;;;5.80;99.90;;;;;;4992376;28;19925;-70
2023/04/13 02:40:31;;;;;;;;;;;5.80;99.90;;;;;;4993518;28;19953;-70
2023/04/13 02:42:58;;;;;;;;;;;5.90;99.90;;;;;;4975518;28;19925;-70
2023/04/13 02:45:24;;;;;;;;;;;5.80;99.90;;;;;;4991459;28;19955;-71
2023/04/13 02:47:50;;;;;;;;;;;5.90;99.90;;;;;;4975822;28;20012;-69
2023/04/13 02:50:16;;;;;;;;;;;5.90;99.90;;;;;;4976034;28;19926;-69
2023/04/13 02:52:42;;;;;;;;;;;5.90;99.90;;;;;;4992556;28;19952;-69
2023/04/13 02:55:08;;;;;;;;;;;5.80;99.90;;;;;;4993225;28;19955;-70
2023/04/13 02:57:33;;;;;;;;;;;5.90;99.90;;;;;;4992880;28;20375;-69
2023/04/13 02:59:59;;;;;;;;;;;5.90;99.90;;;;;;4975422;28;19925;-69
2023/04/13 03:02:28;;;;;;;;;;;5.90;99.90;;;;;;4993170;28;19926;-69
2023/04/13 03:04:54;;;;;;;;;;;5.90;99.90;;;;;;4992741;28;20015;-68
2023/04/13 03:07:20;;;;;;;;;;;5.90;99.90;;;;;;4993103;28;20387;-69
2023/04/13 03:09:46;;;;;;;;;;;5.90;99.90;;;;;;4991492;28;19961;-69
2023/04/13 03:12:11;;;;;;;;;;;5.90;99.90;;;;;;4992362;28;20032;-68
2023/04/13 03:14:37;;;;;;;;;;;5.90;99.90;;;;;;4993279;28;19930;-68
2023/04/13 03:17:03;;;;;;;;;;;5.90;99.90;;;;;;4991409;28;19926;-69
2023/04/13 03:19:29;;;;;;;;;;;5.90;99.90;;;;;;4992914;28;19937;-69
2023/04/13 03:21:55;;;;;;;;;;;5.90;99.90;;;;;;4991855;28;20027;-69
2023/04/13 03:24:22;;;;;;;;;;;5.90;99.90;;;;;;4992071;28;20411;-69
2023/04/13 03:26:48;;;;;;;;;;;5.90;99.90;;;;;;4992482;28;20029;-69
2023/04/13 03:29:13;;;;;;;;;;;5.90;99.90;;;;;;4991878;28;19965;-69
2023/04/13 03:31:40;;;;;;;;;;;5.90;99.90;;;;;;4993019;28;19930;-69
2023/04/13 03:34:05;;;;;;;;;;;5.90;99.90;;;;;;4975354;28;19953;-68
2023/04/13 03:36:31;;;;;;;;;;;5.90;99.90;;;;;;4993028;28;20136;-69
2023/04/13 03:38:57;;;;;;;;;;;6.00;99.90;;;;;;4992248;28;19926;-68
2023/04/13 03:41:22;;;;;;;;;;;5.90;99.90;;;;;;4991530;28;19948;-68
2023/04/13 03:43:48;;;;;;;;;;;5.90;99.90;;;;;;4996412;28;19956;-67
2023/04/13 03:46:14;;;;;;;;;;;6.00;99.90;;;;;;4996872;28;19926;-68
2023/04/13 03:48:40;;;;;;;;;;;6.00;99.90;;;;;;4995356;28;19926;-68
2023/04/13 03:51:06;;;;;;;;;;;6.00;99.90;;;;;;4995241;28;19925;-68
2023/04/13 03:53:32;;;;;;;;;;;6.10;99.90;;;;;;4996769;28;20282;-67
2023/04/13 03:55:57;;;;;;;;;;;6.00;99.90;;;;;;4994828;28;19930;-67
2023/04/13 03:58:23;;;;;;;;;;;6.00;99.90;;;;;;4995749;28;19932;-68
2023/04/13 04:00:48;;;;;;;;;;;6.00;99.90;;;;;;4995512;28;20363;-67
2023/04/13 04:03:16;;;;;;;;;;;6.10;99.90;;;;;;4978981;28;19952;-67
2023/04/13 04:05:42;;;;;;;;;;;6.10;99.90;;;;;;4996454;28;19926;-67
2023/04/13 04:08:07;;;;;;;;;;;6.10;99.90;;;;;;4995866;28;19956;-68
2023/04/13 04:10:33;;;;;;;;;;;6.10;99.90;;;;;;4995491;28;19925;-67
2023/04/13 04:12:58;;;;;;;;;;;6.00;99.90;;;;;;4994958;28;19930;-67
2023/04/13 04:15:24;;;;;;;;;;;6.00;99.90;;;;;;4995311;28;19937;-67
2023/04/13 04:17:50;;;;;;;;;;;6.00;99.90;;;;;;4996284;28;20115;-68
2023/04/13 04:20:16;;;;;;;;;;;6.10;99.90;;;;;;4995765;28;19926;-67
2023/04/13 04:22:43;;;;;;;;;;;6.00;99.90;;;;;;4995087;28;19925;-67
2023/04/13 04:25:10;;;;;;;;;;;6.10;99.90;;;;;;4995745;28;19926;-69
2023/04/13 04:27:36;;;;;;;;;;;6.10;99.90;;;;;;4994782;28;20390;-68
2023/04/13 04:30:05;;;;;;;;;;;6.00;99.90;;;;;;4994222;28;19933;-67
2023/04/13 04:32:35;;;;;;;;;;;6.00;99.90;;;;;;4995598;28;20322;-67
2023/04/13 04:35:02;;;;;;;;;;;6.00;99.90;;;;;;4994351;28;19974;-68
2023/04/13 04:37:28;;;;;;;;;;;5.90;99.90;;;;;;4994749;28;19933;-67
2023/04/13 04:39:54;;;;;;;;;;;5.90;99.90;;;;;;4994271;28;19925;-67
2023/04/13 04:42:20;;;;;;;;;;;5.80;99.90;;;;;;4993913;28;19926;-68
2023/04/13 04:44:48;;;;;;;;;;;5.80;99.90;;;;;;4994999;28;20409;-68
2023/04/13 04:47:15;;;;;;;;;;;5.80;99.90;;;;;;4993552;28;19965;-68
2023/04/13 04:49:41;;;;;;;;;;;5.80;99.90;;;;;;4995260;28;19926;-68
2023/04/13 04:52:11;;;;;;;;;;;5.80;99.90;;;;;;4994825;28;19949;-67
2023/04/13 04:54:38;;;;;;;;;;;5.80;99.90;;;;;;4994337;28;19965;-67
2023/04/13 04:57:03;;;;;;;;;;;5.70;99.90;;;;;;4994975;28;19933;-67
2023/04/13 04:59:29;;;;;;;;;;;5.70;99.90;;;;;;4995367;28;19926;-67
2023/04/13 05:01:54;;;;;;;;;;;5.70;99.90;;;;;;4995436;28;19926;-68
2023/04/13 05:04:20;;;;;;;;;;;5.70;99.90;;;;;;4993966;28;20060;-68
2023/04/13 05:06:47;;;;;;;;;;;5.90;99.90;;;;;;4995265;28;20501;-67
2023/04/13 05:09:13;;;;;;;;;;;5.70;99.90;;;;;;4993921;28;20314;-67
2023/04/13 05:11:40;;;;;;;;;;;5.70;99.90;;;;;;4995149;28;19933;-67
2023/04/13 05:14:05;;;;;;;;;;;5.70;99.90;;;;;;4993784;28;20023;-67
2023/04/13 05:16:32;;;;;;;;;;;5.80;99.90;;;;;;4993890;28;19929;-67
2023/04/13 05:18:58;;;;;;;;;;;6.00;99.90;;;;;;4993529;28;19995;-67
2023/04/13 05:21:25;;;;;;;;;;;5.90;99.90;;;;;;4993590;28;19925;-67
2023/04/13 05:23:51;;;;;;;;;;;5.90;99.90;;;;;;4993679;28;19926;-67
2023/04/13 05:26:16;;;;;;;;;;;5.90;99.90;;;;;;4994234;28;19932;-68
2023/04/13 05:28:42;;;;;;;;;;;5.90;99.90;;;;;;4961642;28;19973;-68
2023/04/13 05:31:08;;;;;;;;;;;6.00;99.90;;;;;;4994470;28;19952;-68
2023/04/13 05:33:33;;;;;;;;;;;6.00;99.90;;;;;;4994715;28;19925;-68
2023/04/13 05:35:59;;;;;;;;;;;6.20;99.90;;;;;;4994645;28;20330;-67
2023/04/13 05:38:25;;;;;;;;;;;6.30;99.90;;;;;;4994137;28;19922;-67
2023/04/13 05:40:51;;;;;;;;;;;6.40;99.90;;;;;;4993514;28;19979;-68
2023/04/13 05:43:17;;;;;;;;;;;6.30;99.90;;;;;;4994095;28;19949;-67
2023/04/13 05:45:42;;;;;;;;;;;6.40;99.90;;;;;;4992890;28;19926;-68
2023/04/13 05:48:08;;;;;;;;;;;6.90;99.90;;;;;;4992743;28;19926;-69
2023/04/13 05:50:33;;;;;;;;;;;7.70;99.90;;;;;;4994453;28;20337;-67
2023/04/13 05:53:00;;;;;;;;;;;8.40;99.90;;;;;;4993366;28;19926;-67
2023/04/13 05:55:26;;;;;;;;;;;9.20;99.90;;;;;;4976713;28;20283;-68
2023/04/13 05:57:52;;;;;;;;;;;9.80;99.90;;;;;;4994197;28;19933;-68
2023/04/13 06:00:19;;;;;;;;;;;10.60;99.90;;;;;;4992563;28;19930;-67
2023/04/13 06:02:47;;;;;;;;;;;11.30;99.90;;;;;;4994048;28;19948;-67
2023/04/13 06:05:17;;;;;;;;;;;11.60;99.90;;;;;;4992495;28;20291;-66
2023/04/13 06:07:43;;;;;;;;;;;12.10;99.90;;;;;;4993898;28;19926;-67
2023/04/13 06:10:10;;;;;;;;;;;12.80;99.90;;;;;;4992863;28;20466;-68
2023/04/13 06:12:36;;;;;;;;;;;13.30;99.90;;;;;;4976568;28;19926;-69
2023/04/13 06:15:02;;;;;;;;;;;13.30;99.90;;;;;;4960602;28;19925;-68
2023/04/13 06:17:28;;;;;;;;;;;12.60;99.90;;;;;;4992324;28;19929;-67
2023/04/13 06:19:53;;;;;;;;;;;11.70;99.90;;;;;;4993731;28;19926;-67
2023/04/13 06:22:19;;;;;;;;;;;11.20;99.90;;;;;;4975890;28;20367;-68
2023/04/13 06:24:45;;;;;;;;;;;10.70;99.90;;;;;;4976170;28;19990;-70
2023/04/13 06:27:11;;;;;;;;;;;10.20;99.90;;;;;;4992573;28;19933;-69
2023/04/13 06:29:37;;;;;;;;;;;9.70;99.90;;;;;;4992324;28;20363;-69
2023/04/13 06:32:03;;;;;;;;;;;9.20;99.90;;;;;;4992528;28;19933;-68
2023/04/13 06:34:29;;;;;;;;;;;8.80;99.90;;;;;;4992302;28;19925;-69
2023/04/13 06:36:54;;;;;;;;;;;8.50;99.90;;;;;;4976489;28;20009;-69
2023/04/13 06:39:20;;;;;;;;;;;8.30;99.90;;;;;;4975514;28;19932;-68
2023/04/13 06:41:47;;;;;;;;;;;8.20;99.90;;;;;;4993126;28;19926;-67
2023/04/13 06:44:12;;;;;;;;;;;8.20;99.90;;;;;;4993285;28;19926;-68
2023/04/13 06:46:38;;;;;;;;;;;8.30;99.90;;;;;;4992986;28;19948;-68
2023/04/13 06:49:04;;;;;;;;;;;8.30;99.90;;;;;;4993309;28;19925;-68
2023/04/13 06:51:30;;;;;;;;;;;8.30;99.90;;;;;;4991953;28;19926;-67
2023/04/13 06:53:55;;;;;;;;;;;8.20;99.90;;;;;;4992183;28;19926;-67
2023/04/13 06:56:21;;;;;;;;;;;8.10;99.90;;;;;;4992764;28;19932;-68
2023/04/13 06:58:47;;;;;;;;;;;8.10;99.90;;;;;;4993328;28;19932;-67
2023/04/13 07:01:12;;;;;;;;;;;8.40;99.90;;;;;;4976029;28;19969;-66
2023/04/13 07:03:38;;;;;;;;;;;8.00;99.90;;;;;;4992775;28;19951;-67
2023/04/13 07:06:04;;;;;;;;;;;7.90;99.90;;;;;;4991848;28;19926;-67
2023/04/13 07:08:31;;;;;;;;;;;7.90;99.90;;;;;;4992865;28;19979;-67
2023/04/13 07:10:56;;;;;;;;;;;7.90;99.90;;;;;;4993130;28;20295;-66
2023/04/13 07:13:23;;;;;;;;;;;7.90;99.90;;;;;;4991569;28;19952;-68
2023/04/13 07:15:49;;;;;;;;;;;8.00;99.90;;;;;;4992916;28;20268;-67
2023/04/13 07:18:14;;;;;;;;;;;8.30;99.90;;;;;;4975194;28;19933;-67
2023/04/13 07:20:40;;;;;;;;;;;8.60;99.90;;;;;;4991300;28;19929;-67
2023/04/13 07:23:06;;;;;;;;;;;9.30;99.90;;;;;;4992755;28;20480;-66
2023/04/13 07:25:33;;;;;;;;;;;10.20;99.90;;;;;;4991318;28;20251;-67
2023/04/13 07:27:58;;;;;;;;;;;11.10;99.90;;;;;;4991499;28;19926;-66
2023/04/13 07:30:24;;;;;;;;;;;11.20;99.90;;;;;;4991345;28;19933;-67
2023/04/13 07:32:50;;;;;;;;;;;10.90;99.90;;;;;;4991669;28;19932;-68
2023/04/13 07:35:16;;;;;;;;;;;10.90;99.90;;;;;;4992625;28;19926;-67
2023/04/13 07:37:41;;;;;;;;;;;11.30;99.90;;;;;;4992333;28;19937;-67
2023/04/13 07:40:07;;;;;;;;;;;11.30;99.90;;;;;;4992266;28;19929;-67
2023/04/13 07:42:33;;;;;;;;;;;11.20;99.90;;;;;;4991294;28;20371;-67
2023/04/13 07:44:58;;;;;;;;;;;11.50;99.90;;;;;;4991978;28;19933;-67
2023/04/13 07:47:24;;;;;;;;;;;12.40;99.90;;;;;;4992159;28;19933;-68
2023/04/13 07:49:50;;;;;;;;;;;13.30;99.90;;;;;;4992238;28;20255;-67
2023/04/13 07:52:15;;;;;;;;;;;14.00;99.90;;;;;;4975589;28;20021;-66
2023/04/13 07:54:41;;;;;;;;;;;14.70;99.90;;;;;;4974661;28;19933;-66
2023/04/13 07:57:07;;;;;;;;;;;;;;;;;;4991631;28;20463;-66
2023/04/13 07:59:33;;;;;;;;;;;15.50;99.90;;;;;;4990243;28;20294;-67
2023/04/13 08:01:58;;;;;;;;;;;16.80;99.90;;;;;;4990950;28;19933;-66
2023/04/13 08:04:24;;;;;;;;;;;17.10;99.90;;;;;;4992295;28;20368;-66
2023/04/13 08:06:50;;;;;;;;;;;16.90;99.90;;;;;;4992120;28;20038;-65
2023/04/13 08:09:15;;;;;;;;;;;16.00;99.90;;;;;;4991411;28;20364;-66
2023/04/13 08:11:41;;;;;;;;;;;14.90;99.90;;;;;;4990852;28;20286;-66
2023/04/13 08:14:08;;;;;;;;;;;13.70;99.90;;;;;;4991382;28;19925;-68
2023/04/13 08:16:34;;;;;;;;;;;13.20;99.90;;;;;;4992159;28;19997;-67
2023/04/13 08:19:00;;;;;;;;;;;12.70;99.90;;;;;;4991203;28;19934;-66
2023/04/13 08:21:26;;;;;;;;;;;12.40;99.90;;;;;;4974842;28;20310;-66
2023/04/13 08:23:51;;;;;;;;;;;12.10;99.90;;;;;;4974773;28;19926;-67
2023/04/13 08:26:18;;;;;;;;;;;12.00;99.90;;;;;;4992222;28;19929;-66
2023/04/13 08:28:43;;;;;;;;;;;12.40;99.90;;;;;;4993149;28;19965;-66
2023/04/13 08:31:09;;;;;;;;;;;12.30;99.90;;;;;;4994531;28;19992;-67
2023/04/13 08:33:34;;;;;;;;;;;12.10;99.90;;;;;;4995203;28;19970;-67
2023/04/13 08:36:00;;;;;;;;;;;12.30;99.90;;;;;;4994965;28;19941;-65
2023/04/13 08:38:27;;;;;;;;;;;12.90;99.90;;;;;;4978588;28;19969;-67
2023/04/13 08:40:53;;;;;;;;;;;12.80;99.90;;;;;;4994496;28;19922;-67
2023/04/13 08:43:19;;;;;;;;;;;12.70;99.90;;;;;;4994785;28;19930;-67
2023/04/13 08:45:45;;;;;;;;;;;13.00;99.90;;;;;;4993857;28;19926;-65
2023/04/13 08:48:12;;;;;;;;;;;13.10;99.90;;;;;;4995734;28;19926;-65
2023/04/13 08:50:37;;;;;;;;;;;12.80;99.90;;;;;;4978059;28;20025;-65
2023/04/13 08:53:03;;;;;;;;;;;12.60;99.90;;;;;;4995523;28;20153;-64
2023/04/13 08:55:28;;;;;;;;;;;12.50;99.90;;;;;;4994343;28;20071;-65
2023/04/13 08:57:56;;;;;;;;;;;12.20;99.90;;;;;;4994248;28;20069;-65
2023/04/13 09:00:22;;;;;;;;;;;11.90;99.90;;;;;;4994191;28;19926;-66
2023/04/13 09:02:57;;;;;;;;;;;11.60;99.90;;;;;;4975601;28;19930;-65
2023/04/13 09:05:23;;;;;;;;;;;11.40;99.90;;;;;;4992644;28;19926;-68
2023/04/13 09:07:52;;;;;;;;;;;11.10;99.90;;;;;;4976926;28;20067;-67
2023/04/13 09:10:19;;;;;;;;;;;10.90;99.90;;;;;;4992494;28;19930;-68
2023/04/13 09:12:45;;;;;;;;;;;10.70;99.90;;;;;;4992349;28;20016;-67
2023/04/13 09:15:12;;;;;;;;;;;10.70;99.90;;;;;;4991742;28;19996;-68
2023/04/13 09:17:38;;;;;;;;;;;10.70;99.90;;;;;;4992906;28;19940;-69
2023/04/13 09:20:11;;;;;;;;;;;10.50;99.90;;;;;;4990924;28;20283;-65
2023/04/13 09:22:36;;;;;;;;;;;10.40;99.90;;;;;;4991865;28;20367;-69
2023/04/13 09:25:04;;;;;;;;;;;10.60;99.90;;;;;;4991305;28;20056;-65
2023/04/13 09:27:29;;;;;;;;;;;10.70;99.90;;;;;;4993157;28;19930;-67
2023/04/13 09:29:55;;;;;;;;;;;10.90;99.90;;;;;;4989293;28;20259;-65
2023/04/13 09:32:26;;;;;;;;;;;10.90;99.90;;;;;;4974660;28;20002;-66
2023/04/13 09:35:05;;;;;;;;;;;10.80;99.90;;;;;;4991806;28;20304;-65
2023/04/13 09:37:31;;;;;;;;;;;10.70;99.90;;;;;;4993063;28;20390;-67
2023/04/13 09:40:08;;;;;;;;;;;10.50;99.90;;;;;;4989589;28;19921;-68
2023/04/13 09:42:34;;;;;;;;;;;10.60;99.90;;;;;;4973599;28;19996;-67
2023/04/13 09:44:59;;;;;;;;;;;10.20;99.90;;;;;;4991741;28;20030;-70
2023/04/13 09:47:33;;;;;;;;;;;10.10;99.90;;;;;;4993452;28;19926;-69
2023/04/13 09:49:59;;;;;;;;;;;10.00;99.90;;;;;;4992265;28;20367;-69
2023/04/13 09:52:24;;;;;;;;;;;9.80;99.90;;;;;;4992866;28;19926;-68
2023/04/13 09:54:51;;;;;;;;;;;9.50;99.90;;;;;;4992328;28;20454;-67
2023/04/13 09:57:26;;;;;;;;;;;9.30;99.90;;;;;;4992192;28;20013;-66
2023/04/13 09:59:53;;;;;;;;;;;9.30;99.90;;;;;;4992372;28;20283;-66
2023/04/13 10:02:19;;;;;;;;;;;9.30;99.90;;;;;;4994399;28;20005;-68
2023/04/13 10:04:45;;;;;;;;;;;9.30;99.90;;;;;;4991943;28;20352;-66
2023/04/13 10:07:12;;;;;;;;;;;9.30;99.90;;;;;;4992256;28;19926;-66
2023/04/13 10:09:43;;;;;;;;;;;9.30;99.90;;;;;;4993333;28;19945;-65
2023/04/13 10:12:12;;;;;;;;;;;9.40;99.90;;;;;;4992162;28;19957;-66
2023/04/13 10:14:42;;;;;;;;;;;9.30;99.90;;;;;;4992265;28;19930;-67
2023/04/13 10:17:11;;;;;;;;;;;9.30;99.90;;;;;;4976540;28;19930;-67
2023/04/13 10:19:48;;;;;;;;;;;9.30;99.90;;;;;;4990302;28;19925;-66
2023/04/13 10:22:14;;;;;;;;;;;9.40;99.90;;;;;;4991859;28;20057;-67
2023/04/13 10:24:40;;;;;;;;;;;9.50;99.90;;;;;;4960406;28;19926;-66
2023/04/13 10:27:10;;;;;;;;;;;9.60;99.90;;;;;;4976371;28;19987;-66
2023/04/13 10:29:36;;;;;;;;;;;9.80;99.90;;;;;;4992559;28;20072;-66
2023/04/13 10:32:01;;;;;;;;;;;10.00;99.90;;;;;;4976051;28;19969;-66
2023/04/13 10:34:28;;;;;;;;;;;10.20;99.90;;;;;;4992209;28;19981;-66
2023/04/13 10:37:03;;;;;;;;;;;10.30;99.90;;;;;;4992248;28;19964;-65
2023/04/13 10:39:29;;;;;;;;;;;10.40;99.90;;;;;;4992521;28;20303;-66
2023/04/13 10:41:59;;;;;;;;;;;10.50;99.90;;;;;;4992149;28;19933;-65
2023/04/13 10:44:25;;;;;;;;;;;10.50;99.90;;;;;;4992340;28;20344;-66
2023/04/13 10:46:50;;;;;;;;;;;10.60;99.90;;;;;;4975667;28;19972;-66
2023/04/13 10:49:16;;;;;;;;;;;10.70;99.90;;;;;;4993246;28;19925;-66
2023/04/13 10:51:43;;;;;;;;;;;10.60;99.90;;;;;;4958506;28;20046;-66
2023/04/13 10:54:08;;;;;;;;;;;10.70;99.90;;;;;;4991637;28;19982;-66
2023/04/13 10:56:34;;;;;;;;;;;10.90;99.90;;;;;;4993197;28;20016;-65
2023/04/13 10:59:00;;;;;;;;;;;11.10;99.90;;;;;;4991864;28;19926;-66
2023/04/13 11:01:26;;;;;;;;;;;11.30;99.90;;;;;;4993131;28;19932;-66
2023/04/13 11:03:52;;;;;;;;;;;11.40;99.90;;;;;;4991437;28;19932;-69
2023/04/13 11:06:18;;;;;;;;;;;11.40;99.90;;;;;;4992844;28;19926;-66
2023/04/13 11:08:45;;;;;;;;;;;11.40;99.90;;;;;;4992087;28;19932;-66
2023/04/13 11:11:13;;;;;;;;;;;11.20;99.90;;;;;;4991095;28;20406;-66
2023/04/13 11:13:43;;;;;;;;;;;11.00;99.90;;;;;;4991391;28;19945;-66
2023/04/13 11:16:08;;;;;;;;;;;10.90;99.90;;;;;;4992698;28;19932;-67
2023/04/13 11:18:34;;;;;;;;;;;10.80;99.90;;;;;;4991683;28;19926;-66
2023/04/13 11:21:02;;;;;;;;;;;10.70;99.90;;;;;;4992548;28;19972;-68
2023/04/13 11:23:27;;;;;;;;;;;10.60;99.90;;;;;;4991890;28;19949;-68
2023/04/13 11:25:55;;;;;;;;;;;10.50;99.90;;;;;;4991304;28;20268;-72
2023/04/13 11:28:21;;;;;;;;;;;10.50;99.90;;;;;;4991901;28;19926;-70
2023/04/13 11:30:55;;;;;;;;;;;10.50;99.90;;;;;;4975671;28;20375;-70
2023/04/13 11:33:27;;;;;;;;;;;10.70;99.90;;;;;;4992964;28;19932;-70
2023/04/13 11:35:54;;;;;;;;;;;10.70;99.90;;;;;;4992878;28;19941;-69
2023/04/13 11:38:19;;;;;;;;;;;10.80;99.90;;;;;;4992714;28;19926;-70
2023/04/13 11:40:46;;;;;;;;;;;10.90;99.90;;;;;;4991862;28;20390;-69
2023/04/13 11:43:13;;;;;;;;;;;11.00;99.90;;;;;;4991344;28;20324;-69
2023/04/13 11:45:41;;;;;;;;;;;11.10;99.90;;;;;;4992554;28;19932;-70
2023/04/13 11:48:07;;;;;;;;;;;11.20;99.90;;;;;;4992452;28;19925;-68
2023/04/13 11:50:33;;;;;;;;;;;11.30;99.90;;;;;;4991880;28;20005;-67
2023/04/13 11:52:58;;;;;;;;;;;11.30;99.90;;;;;;4975369;28;20338;-72
2023/04/13 11:55:24;;;;;;;;;;;11.30;99.90;;;;;;4991239;28;19932;-68
2023/04/13 11:57:51;;;;;;;;;;;11.40;99.90;;;;;;4991661;28;19936;-68
2023/04/13 12:00:22;;;;;;;;;;;11.40;99.90;;;;;;4991253;28;19925;-68
2023/04/13 12:02:52;;;;;;;;;;;11.40;99.90;;;;;;4993653;28;19925;-68
2023/04/13 12:05:24;;;;;;;;;;;11.50;99.90;;;;;;4996253;28;20306;-68
2023/04/13 12:07:52;;;;;;;;;;;11.50;99.90;;;;;;4996045;28;19926;-69
2023/04/13 12:10:21;;;;;;;;;;;11.50;99.90;;;;;;4995116;28;19930;-68
2023/04/13 12:12:54;;;;;;;;;;;11.50;99.90;;;;;;4996611;28;19936;-68
2023/04/13 12:15:22;;;;;;;;;;;11.40;99.90;;;;;;4994845;28;20146;-69
2023/04/13 12:17:52;;;;;;;;;;;11.30;99.90;;;;;;4996105;28;19929;-69
2023/04/13 12:20:17;;;;;;;;;;;11.40;99.90;;;;;;4994939;28;20355;-69
2023/04/13 12:22:43;;;;;;;;;;;11.40;99.90;;;;;;4995628;28;19981;-69
2023/04/13 12:25:15;;;;;;;;;;;11.40;99.90;;;;;;4978615;28;19929;-69
2023/04/13 12:27:41;;;;;;;;;;;11.40;99.90;;;;;;4996266;28;19925;-69
2023/04/13 12:30:17;;;;;;;;;;;11.30;99.90;;;;;;4994484;28;20128;-69
2023/04/13 12:32:44;;;;;;;;;;;11.30;99.90;;;;;;4996080;28;19926;-67
2023/04/13 12:35:10;;;;;;;;;;;11.30;99.90;;;;;;4995792;28;19987;-67
2023/04/13 12:37:40;;;;;;;;;;;11.30;99.90;;;;;;4995997;28;20021;-67
2023/04/13 12:40:09;;;;;;;;;;;11.40;99.90;;;;;;4978470;28;19948;-69
2023/04/13 12:42:34;;;;;;;;;;;11.50;99.90;;;;;;4995866;28;19956;-67
2023/04/13 12:45:00;;;;;;;;;;;11.50;99.90;;;;;;4978260;28;19926;-67
2023/04/13 12:47:25;;;;;;;;;;;11.40;99.90;;;;;;4995592;28;19922;-67
2023/04/13 12:49:51;;;;;;;;;;;11.40;99.90;;;;;;4995891;28;20385;-67
2023/04/13 12:52:17;;;;;;;;;;;11.40;99.90;;;;;;4994280;28;19930;-66
2023/04/13 12:54:42;;;;;;;;;;;11.40;99.90;;;;;;4994870;28;19976;-67
2023/04/13 12:57:08;;;;;;;;;;;11.30;99.90;;;;;;4994127;28;20371;-70
2023/04/13 12:59:33;;;;;;;;;;;11.20;99.90;;;;;;4994721;28;19926;-69
2023/04/13 13:01:59;;;;;;;;;;;11.10;99.90;;;;;;4995476;28;19933;-66
2023/04/13 13:04:25;;;;;;;;;;;11.10;99.90;;;;;;4995135;28;19926;-67
2023/04/13 13:06:51;;;;;;;;;;;11.00;99.90;;;;;;4994409;28;19926;-66
2023/04/13 13:09:17;;;;;;;;;;;11.00;99.90;;;;;;4995186;28;19953;-66
2023/04/13 13:11:42;;;;;;;;;;;10.90;99.90;;;;;;4995226;28;19926;-66
2023/04/13 13:14:08;;;;;;;;;;;10.90;99.90;;;;;;4993359;28;20054;-69
2023/04/13 13:16:34;;;;;;;;;;;10.90;99.90;;;;;;4961464;28;19948;-66
2023/04/13 13:18:59;;;;;;;;;;;11.00;99.90;;;;;;4995100;28;19926;-66
2023/04/13 13:21:25;;;;;;;;;;;11.00;99.90;;;;;;4993625;28;20063;-67
2023/04/13 13:23:51;;;;;;;;;;;11.10;99.90;;;;;;4993985;28;19933;-68
2023/04/13 13:26:17;;;;;;;;;;;11.20;99.90;;;;;;4993579;28;19933;-66
2023/04/13 13:28:42;;;;;;;;;;;11.20;99.90;;;;;;4994183;28;19926;-66
2023/04/13 13:31:08;;;;;;;;;;;11.30;99.90;;;;;;4977364;28;19926;-66
2023/04/13 13:33:33;;;;;;;;;;;11.20;99.90;;;;;;4993739;28;19926;-67
2023/04/13 13:35:59;;;;;;;;;;;11.10;99.90;;;;;;4993993;28;19932;-66
2023/04/13 13:38:25;;;;;;;;;;;11.00;99.90;;;;;;4994484;28;20302;-67
2023/04/13 13:40:50;;;;;;;;;;;10.90;99.90;;;;;;4993698;28;19925;-67
2023/04/13 13:43:20;;;;;;;;;;;10.90;99.90;;;;;;4994505;28;20298;-67
2023/04/13 13:45:46;;;;;;;;;;;11.00;99.90;;;;;;4994654;28;19930;-67
2023/04/13 13:48:12;;;;;;;;;;;11.00;99.90;;;;;;4993568;28;19976;-67
2023/04/13 13:50:38;;;;;;;;;;;11.00;99.90;;;;;;4992994;28;19977;-67
2023/04/13 13:53:04;;;;;;;;;;;11.00;99.90;;;;;;4994300;28;20324;-69
2023/04/13 13:55:30;;;;;;;;;;;10.90;99.90;;;;;;4992969;28;19956;-66
2023/04/13 13:57:56;;;;;;;;;;;10.90;99.90;;;;;;4994369;28;20280;-66
2023/04/13 14:00:23;;;;;;;;;;;10.90;99.90;;;;;;4976552;28;19933;-68
2023/04/13 14:02:48;;;;;;;;;;;10.90;99.90;;;;;;4993239;28;19926;-68
2023/04/13 14:05:14;;;;;;;;;;;11.00;99.90;;;;;;4976961;28;19932;-67
2023/04/13 14:07:41;;;;;;;;;;;11.10;99.90;;;;;;4977021;28;19932;-67
2023/04/13 14:10:07;;;;;;;;;;;11.20;99.90;;;;;;4993490;28;20020;-66
2023/04/13 14:12:32;;;;;;;;;;;11.10;99.90;;;;;;4994139;28;19932;-67
2023/04/13 14:14:58;;;;;;;;;;;11.20;99.90;;;;;;4994358;28;20379;-66
2023/04/13 14:17:24;;;;;;;;;;;11.30;99.90;;;;;;4992895;28;19926;-67
2023/04/13 14:19:49;;;;;;;;;;;11.30;99.90;;;;;;4993016;28;19933;-66